UNNT/OVB METAR and TAF weather

Enter ICAO airport designator
Station Type Date Time Source
UNNT METAR 2019/04/20 22:30 UTC NOAA

UNNT 202230Z 25005MPS CAVOK 00/M06 Q1011 R25/090070 R34/090070 NOSIG RMK QFE748/0998


Station Type Date Time Source
UNNT Decoded METAR 2019/04/20 22:30 UTC NOAA

Station name not available
Apr 20, 2019 - 06:30 PM EDT / 2019.04.20 2230 UTC
Wind: from the WSW (250 degrees) at 11 MPH (10 KT):0
Visibility: greater than 7 mile(s):0
Temperature: 32 F (0 C)
Windchill: 23 F (-5 C):1
Dew Point: 21 F (-6 C)
Relative Humidity: 63%
Pressure (altimeter): 29.85 in. Hg (1011 hPa)
ob: UNNT 202230Z 25005MPS CAVOK 00/M06 Q1011 R25/090070 R34/090070 NOSIG RMK QFE748/0998
cycle: 22

Station Type Date Time Source
UNNT TAF 2019/04/20 21:21 UTC NOAA

TAF UNNT 202000Z 2021/2121 27005G10MPS 9999 BKN051CB
TEMPO 2021/2102 22003MPS 3100 FU BKN016CB
FM210200 32006G13MPS 9999 BKN020CB
TEMPO 2102/2110 27003G08MPS 3100 -SHSNRA BKN011CB
FM211500 36003G08MPS CAVOK

Example: see airport list